Thousandsticks, Kentucky
Current Conditions -  °F | °C
As of 8:35 AM on Thursday 23 Oct 2014 (Local Time) from KI35 Reporting Station
Overcast Overcast  
Wind Chill: 41°   Ceiling: 2100
Heat Index: 45°   Visibility: 10mi
Dew Point: 36°   Wind: 6mph
Humidity: 71%   Direction: 20°NNE
Pressure: 30.23"   Gusts: NA
Location:  37.19°N, 83.43°W
Report Text: KI35 231235Z AUTO 02005KT 10SM OVC021 07/02 A3023 RMK AO1
Loading
Personal Weather Stations






























Interactive Weather Map
Tropical Storm Tracking
New forecast layout! Learn more

10-Day Weather Forecast

Advertisements
Track Severe Weather on mobile